CYPR/YPR METAR and TAF weather

Enter ICAO airport designator
Station Type Date Time Source
CYPR METAR 2018/12/12 23:16 UTC NOAA

CYPR 122316Z AUTO 13023G31KT 100V180 9SM -RA SCT019 OVC032 04/03 A2921 RMK PRESFR SLP892


Station Type Date Time Source
CYPR Decoded METAR 2018/12/12 23:16 UTC NOAA

Prince Rupert, B. C., Canada (CYPR) 54-18N 130-26W 34M
Dec 12, 2018 - 06:16 PM EST / 2018.12.12 2316 UTC
Wind: from the SE (130 degrees) at 26 MPH (23 KT) gusting to 36 MPH (31 KT) (direction variable):0
Visibility: 9 mile(s):0
Sky conditions: overcast
Weather: light rain
Temperature: 39 F (4 C)
Dew Point: 37 F (3 C)
Relative Humidity: 93%
Pressure (altimeter): 29.21 in. Hg (989 hPa)
Pressure tendency: falling rapidly
ob: CYPR 122316Z AUTO 13023G31KT 100V180 9SM -RA SCT019 OVC032 04/03 A2921 RMK PRESFR SLP892
cycle: 23

Station Type Date Time Source
CYPR TAF 2018/12/12 19:39 UTC NOAA

TAF CYPR 121838Z 1219/1307 13018G28KT P6SM -RA SCT020 OVC040
TEMPO 1219/1223 3SM -RA BR FEW008 OVC020
FM122300 13020G30KT 6SM -RA BR SCT006 OVC015
TEMPO 1223/1307 2SM SHRA BR OVC006
BECMG 1304/1306 15015G25KT WS005/19040KT
RMK FCST BASED ON AUTO OBS. NXT FCST BY 130100Z


Example: see airport list